createdAt,value
2022-11-22T00:00:43.189Z,98891.13
2022-11-22T00:03:10.439Z,98890.25
2022-11-22T00:05:38.123Z,98887.38
2022-11-22T00:08:05.652Z,98889.88
2022-11-22T00:10:32.924Z,98895.03
2022-11-22T00:13:00.241Z,98904.91
2022-11-22T00:15:27.233Z,98897.66
2022-11-22T00:17:54.153Z,98896.22
2022-11-22T00:20:22.301Z,98885.94
2022-11-22T00:22:49.271Z,98882.75
2022-11-22T00:25:16.405Z,98896.13
2022-11-22T00:27:43.799Z,98896.00
2022-11-22T00:30:11.227Z,98892.03
2022-11-22T00:32:38.170Z,98902.53
2022-11-22T00:35:05.832Z,98883.50
2022-11-22T00:37:33.231Z,98886.41
2022-11-22T00:40:00.232Z,98889.75
2022-11-22T00:42:27.183Z,98888.56
2022-11-22T00:44:54.092Z,98897.13
2022-11-22T00:47:21.051Z,98904.13
2022-11-22T00:49:48.065Z,98898.31
2022-11-22T00:52:15.139Z,98900.81
2022-11-22T00:54:42.296Z,98897.78
2022-11-22T00:57:09.224Z,98910.53
2022-11-22T00:59:36.127Z,98897.13
2022-11-22T01:02:03.060Z,98887.69
2022-11-22T01:04:30.011Z,98880.28
2022-11-22T01:06:56.955Z,98894.00
2022-11-22T01:09:24.897Z,98886.56
2022-11-22T01:11:52.373Z,98890.09
2022-11-22T01:14:19.664Z,98892.31
2022-11-22T01:16:47.733Z,98884.72
2022-11-22T01:19:15.385Z,98884.28
2022-11-22T01:21:42.506Z,98883.47
2022-11-22T01:24:10.104Z,98876.44
2022-11-22T01:26:37.256Z,98886.47
2022-11-22T01:29:04.778Z,98878.28
2022-11-22T01:31:31.837Z,98875.94
2022-11-22T01:33:59.508Z,98879.09
2022-11-22T01:36:27.583Z,98879.28
2022-11-22T01:38:55.274Z,98880.16
2022-11-22T01:41:22.867Z,98887.66
2022-11-22T01:43:49.897Z,98900.88
2022-11-22T01:46:30.536Z,98884.81
2022-11-22T01:49:29.351Z,98891.69
2022-11-22T01:52:06.340Z,98893.41
2022-11-22T01:54:38.822Z,98899.25
2022-11-22T01:57:13.925Z,98898.81
2022-11-22T01:59:49.215Z,98899.91
2022-11-22T02:02:16.292Z,98894.63
2022-11-22T02:04:45.596Z,98896.28
2022-11-22T02:07:25.140Z,98904.66
2022-11-22T02:09:53.355Z,98887.22
2022-11-22T02:12:27.953Z,98884.50
2022-11-22T02:14:56.090Z,98901.31
2022-11-22T02:17:26.757Z,98884.94
2022-11-22T02:19:54.648Z,98899.50
2022-11-22T02:22:52.343Z,98905.44
2022-11-22T02:25:27.211Z,98898.81
2022-11-22T02:27:54.174Z,98881.22
2022-11-22T02:30:21.847Z,98884.47
2022-11-22T02:32:48.809Z,98894.13
2022-11-22T02:35:22.844Z,98909.28
2022-11-22T02:37:56.697Z,98903.34
2022-11-22T02:40:24.593Z,98897.31
2022-11-22T02:43:36.020Z,98889.31
2022-11-22T02:46:09.515Z,98906.50
2022-11-22T02:48:42.555Z,98904.81
2022-11-22T02:51:09.837Z,98902.34
2022-11-22T02:53:36.963Z,98905.31
2022-11-22T02:56:04.090Z,98897.41
2022-11-22T02:58:31.022Z,98898.59
2022-11-22T03:00:58.006Z,98910.78
2022-11-22T03:03:24.991Z,98893.38
2022-11-22T03:05:51.926Z,98918.78
2022-11-22T03:08:18.863Z,98921.78
2022-11-22T03:10:45.802Z,98916.28
2022-11-22T03:13:12.718Z,98902.69
2022-11-22T03:15:39.681Z,98916.03
2022-11-22T03:18:06.638Z,98912.31
2022-11-22T03:20:34.127Z,98920.38
2022-11-22T03:23:01.543Z,98926.28
2022-11-22T03:25:28.974Z,98929.41
2022-11-22T03:27:56.222Z,98919.47
2022-11-22T03:30:23.136Z,98942.91
2022-11-22T03:32:50.048Z,98945.00
2022-11-22T03:35:17.043Z,98940.69
2022-11-22T03:37:43.940Z,98943.22
2022-11-22T03:40:11.236Z,98940.06
2022-11-22T03:42:38.181Z,98938.00
2022-11-22T03:45:06.368Z,98940.75
2022-11-22T03:47:33.281Z,98938.13
2022-11-22T03:50:00.238Z,98930.84
2022-11-22T03:52:27.232Z,98934.44
2022-11-22T03:54:54.132Z,98933.28
2022-11-22T03:57:21.049Z,98934.13
2022-11-22T03:59:48.027Z,98942.06
2022-11-22T04:02:15.085Z,98937.59
2022-11-22T04:04:42.063Z,98938.06
2022-11-22T04:07:09.002Z,98939.59
2022-11-22T04:09:35.959Z,98931.22
2022-11-22T04:12:03.105Z,98935.00
2022-11-22T04:14:48.443Z,98927.94
2022-11-22T04:17:35.544Z,98930.44
2022-11-22T04:20:21.038Z,98920.84
2022-11-22T04:23:13.573Z,98923.06
2022-11-22T04:25:43.528Z,98934.97
2022-11-22T04:28:12.199Z,98927.47
2022-11-22T04:30:57.898Z,98921.56
2022-11-22T04:33:25.631Z,98941.75
2022-11-22T04:35:53.061Z,98930.72
2022-11-22T04:38:20.877Z,98923.91
2022-11-22T04:40:48.119Z,98940.28
2022-11-22T04:43:42.988Z,98935.47
2022-11-22T04:46:10.577Z,98920.69
2022-11-22T04:48:37.775Z,98923.16
2022-11-22T04:51:25.235Z,98926.06
2022-11-22T04:53:52.631Z,98924.81
2022-11-22T04:56:19.845Z,98929.31
2022-11-22T04:58:46.796Z,98921.84
2022-11-22T05:01:13.782Z,98929.66
2022-11-22T05:03:40.766Z,98921.38
2022-11-22T05:06:07.706Z,98905.25
2022-11-22T05:08:34.661Z,98903.56
2022-11-22T05:11:01.631Z,98906.56
2022-11-22T05:13:38.872Z,98912.06
2022-11-22T05:16:09.071Z,98913.50
2022-11-22T05:18:36.482Z,98912.69
2022-11-22T05:21:08.916Z,98900.47
2022-11-22T05:23:54.599Z,98913.56
2022-11-22T05:26:33.911Z,98918.22
2022-11-22T05:29:10.002Z,98911.53
2022-11-22T05:31:39.785Z,98925.22
2022-11-22T05:34:07.294Z,98926.88
2022-11-22T05:36:35.373Z,98935.63
2022-11-22T05:39:03.005Z,98939.53
2022-11-22T05:41:30.071Z,98947.66
2022-11-22T05:43:57.478Z,98931.34
2022-11-22T05:46:30.181Z,98923.81
2022-11-22T05:48:58.506Z,98918.69
2022-11-22T05:51:34.608Z,98936.81
2022-11-22T05:54:02.748Z,98926.03
2022-11-22T05:56:29.815Z,98923.34
2022-11-22T05:58:56.783Z,98925.72
2022-11-22T06:01:24.731Z,98923.38
2022-11-22T06:03:52.377Z,98919.72
2022-11-22T06:06:19.889Z,98928.94
2022-11-22T06:08:48.632Z,98928.94
2022-11-22T06:11:25.763Z,98935.22
2022-11-22T06:13:59.572Z,98923.38
2022-11-22T06:16:27.474Z,98919.66
2022-11-22T06:18:54.739Z,98916.81
2022-11-22T06:21:24.706Z,98914.00
2022-11-22T06:23:53.437Z,98915.31
2022-11-22T06:26:21.570Z,98907.56
2022-11-22T06:28:49.801Z,98914.44
2022-11-22T06:31:20.968Z,98919.41
2022-11-22T06:33:48.547Z,98913.56
2022-11-22T06:36:19.979Z,98921.13
2022-11-22T06:38:47.637Z,98928.31
2022-11-22T06:41:19.269Z,98931.31
2022-11-22T06:43:49.358Z,98935.44
2022-11-22T06:46:22.962Z,98939.47
2022-11-22T06:48:50.406Z,98933.91
2022-11-22T06:51:27.609Z,98941.38
2022-11-22T06:53:56.001Z,98939.78
2022-11-22T06:56:30.890Z,98937.22
2022-11-22T06:59:02.012Z,98939.13
2022-11-22T07:01:29.943Z,98947.06
2022-11-22T07:03:59.148Z,98950.47
2022-11-22T07:06:33.527Z,98946.91
2022-11-22T07:09:02.480Z,98955.00
2022-11-22T07:11:32.159Z,98959.19
2022-11-22T07:14:06.976Z,98953.19
2022-11-22T07:16:37.414Z,98947.22
2022-11-22T07:19:05.701Z,98944.16
2022-11-22T07:21:32.771Z,98955.38
2022-11-22T07:23:59.784Z,98955.72
2022-11-22T07:26:27.851Z,98943.66
2022-11-22T07:28:54.944Z,98954.34
2022-11-22T07:31:21.935Z,98944.69
2022-11-22T07:33:49.232Z,98939.44
2022-11-22T07:36:20.155Z,98941.66
2022-11-22T07:38:50.347Z,98937.41
2022-11-22T07:41:19.407Z,98944.06
2022-11-22T07:43:47.225Z,98916.13
2022-11-22T07:46:31.262Z,98931.50
2022-11-22T07:49:00.057Z,98923.78
2022-11-22T07:51:27.536Z,98919.34
2022-11-22T07:53:56.452Z,98936.63
2022-11-22T07:56:24.250Z,98924.59
2022-11-22T07:58:51.226Z,98923.19
2022-11-22T08:01:19.941Z,98917.94
2022-11-22T08:03:46.966Z,98927.16
2022-11-22T08:06:15.025Z,98916.16
2022-11-22T08:08:42.448Z,98916.25
2022-11-22T08:11:10.163Z,98910.75
2022-11-22T08:13:40.473Z,98922.00
2022-11-22T08:16:11.807Z,98942.47
2022-11-22T08:18:39.600Z,98920.16
2022-11-22T08:21:12.533Z,98912.69
2022-11-22T08:23:40.540Z,98917.44
2022-11-22T08:26:12.669Z,98909.16
2022-11-22T08:28:40.978Z,98917.63
2022-11-22T08:31:12.827Z,98914.50
2022-11-22T08:33:40.839Z,98916.22
2022-11-22T08:36:08.448Z,98920.34
2022-11-22T08:38:36.154Z,98907.31
2022-11-22T08:41:04.191Z,98909.84
2022-11-22T08:43:31.982Z,98914.63
2022-11-22T08:46:00.106Z,98910.28
2022-11-22T08:48:28.685Z,98915.31
2022-11-22T08:50:58.786Z,98913.44
2022-11-22T08:53:26.674Z,98915.97
2022-11-22T08:55:54.818Z,98907.50
2022-11-22T08:58:22.607Z,98914.22
2022-11-22T09:00:49.530Z,98901.88
2022-11-22T09:03:16.454Z,98906.13
2022-11-22T09:08:34.366Z,98911.22
2022-11-22T09:11:07.030Z,98910.88
2022-11-22T09:13:34.064Z,98903.16
2022-11-22T09:16:07.495Z,98902.72
2022-11-22T09:18:35.437Z,98904.31
2022-11-22T09:21:11.206Z,98915.56
2022-11-22T09:23:38.377Z,98912.13
2022-11-22T09:26:08.983Z,98910.31
2022-11-22T09:28:36.485Z,98912.91
2022-11-22T09:31:13.706Z,98915.38
2022-11-22T09:33:42.242Z,98912.09
2022-11-22T09:36:18.871Z,98925.72
2022-11-22T09:38:46.243Z,98909.34
2022-11-22T09:41:55.688Z,98905.50
2022-11-22T09:44:50.366Z,98900.44
2022-11-22T09:47:35.733Z,98905.44
2022-11-22T09:50:26.519Z,98904.56
2022-11-22T09:53:17.109Z,98905.59
2022-11-22T09:56:09.847Z,98906.63
2022-11-22T09:58:53.352Z,98905.69
2022-11-22T10:01:41.068Z,98899.63
2022-11-22T10:04:21.518Z,98910.03
2022-11-22T10:06:55.937Z,98902.72
2022-11-22T10:09:46.887Z,98906.41
2022-11-22T10:12:36.154Z,98908.22
2022-11-22T10:15:11.524Z,98908.59
2022-11-22T10:18:09.485Z,98910.41
2022-11-22T10:20:47.247Z,98910.44
2022-11-22T10:23:20.626Z,98916.22
2022-11-22T10:26:21.865Z,98912.53
2022-11-22T10:29:05.394Z,98897.44
2022-11-22T10:31:44.282Z,98897.28
2022-11-22T10:34:38.221Z,98900.19
2022-11-22T10:37:42.324Z,98895.34
2022-11-22T10:40:21.460Z,98896.78
2022-11-22T10:43:26.526Z,98899.44
2022-11-22T10:46:08.425Z,98911.78
2022-11-22T10:48:48.612Z,98901.13
2022-11-22T10:51:18.602Z,98898.09
2022-11-22T10:54:04.141Z,98909.28
2022-11-22T10:56:55.064Z,98898.25
2022-11-22T10:59:36.750Z,98899.53
2022-11-22T11:02:36.094Z,98895.50
2022-11-22T11:05:09.052Z,98895.94
2022-11-22T11:07:46.250Z,98901.00
2022-11-22T11:10:32.591Z,98897.19
2022-11-22T11:13:26.374Z,98893.53
2022-11-22T11:16:00.250Z,98889.78
2022-11-22T11:18:41.802Z,98876.50
2022-11-22T11:21:14.676Z,98867.47
2022-11-22T11:23:42.824Z,98878.97
2022-11-22T11:26:24.152Z,98885.13
2022-11-22T11:28:51.386Z,98875.59
2022-11-22T11:31:19.170Z,98869.00
2022-11-22T11:33:46.981Z,98865.59
2022-11-22T11:36:22.194Z,98857.56
2022-11-22T11:38:57.440Z,98862.75
2022-11-22T11:41:40.245Z,98880.47
2022-11-22T11:44:32.337Z,98865.25
2022-11-22T11:47:02.520Z,98867.75
2022-11-22T11:49:33.105Z,98884.75
2022-11-22T11:52:04.202Z,98876.41
2022-11-22T11:54:40.759Z,98888.28
2022-11-22T11:57:23.945Z,98894.38
2022-11-22T11:59:52.613Z,98882.13
2022-11-22T12:02:39.997Z,98888.13
2022-11-22T12:05:14.198Z,98882.84
2022-11-22T12:07:44.877Z,98884.03
2022-11-22T12:10:40.639Z,98886.47
2022-11-22T12:14:12.445Z,98875.94
2022-11-22T12:16:40.315Z,98878.31
2022-11-22T12:20:02.308Z,98890.44
2022-11-22T12:23:01.265Z,98883.19
2022-11-22T12:25:39.247Z,98876.53
2022-11-22T12:28:20.769Z,98877.91
2022-11-22T12:31:16.344Z,98877.91
2022-11-22T12:33:47.919Z,98881.59
2022-11-22T12:36:54.249Z,98866.28
2022-11-22T12:39:27.219Z,98872.28
2022-11-22T12:42:01.500Z,98870.38
2022-11-22T12:44:35.016Z,98868.53
2022-11-22T12:47:13.298Z,98868.38
2022-11-22T12:50:07.145Z,98873.53
2022-11-22T12:52:47.799Z,98878.38
2022-11-22T12:55:31.586Z,98872.69
2022-11-22T12:58:32.760Z,98871.91
2022-11-22T13:01:24.579Z,98873.88
2022-11-22T13:04:01.124Z,98870.59
2022-11-22T13:06:50.167Z,98881.84
2022-11-22T13:09:36.493Z,98881.25
2022-11-22T13:12:09.903Z,98878.00
2022-11-22T13:14:47.656Z,98888.06
2022-11-22T13:17:17.381Z,98893.94
2022-11-22T13:19:50.897Z,98901.69
2022-11-22T13:23:01.582Z,98903.06
2022-11-22T13:25:48.698Z,98891.00
2022-11-22T13:28:30.219Z,98892.22
2022-11-22T13:31:04.406Z,98891.91
2022-11-22T13:33:32.162Z,98880.63
2022-11-22T13:36:29.919Z,98895.72
2022-11-22T13:39:09.503Z,98893.94
2022-11-22T13:41:59.866Z,98891.31
2022-11-22T13:44:33.026Z,98911.69
2022-11-22T13:47:04.611Z,98901.34
2022-11-22T13:49:48.826Z,98904.00
2022-11-22T13:52:16.197Z,98908.69
2022-11-22T13:54:56.771Z,98915.28
2022-11-22T13:57:40.671Z,98906.06
2022-11-22T14:00:16.045Z,98895.03
2022-11-22T14:03:21.475Z,98895.25
2022-11-22T14:05:51.393Z,98909.97
2022-11-22T14:08:36.428Z,98913.53
2022-11-22T14:11:37.663Z,98907.53
2022-11-22T14:14:46.488Z,98923.50
2022-11-22T14:17:41.574Z,98918.31
2022-11-22T14:20:27.597Z,98909.09
2022-11-22T14:23:30.716Z,98920.59
2022-11-22T14:26:10.558Z,98914.78
2022-11-22T14:29:05.311Z,98929.56
2022-11-22T14:31:35.107Z,98933.47
2022-11-22T14:34:27.393Z,98926.97
2022-11-22T14:37:13.212Z,98921.41
2022-11-22T14:39:50.159Z,98936.28
2022-11-22T14:42:35.724Z,98931.50
2022-11-22T14:45:43.797Z,98934.78
2022-11-22T14:48:30.468Z,98937.00
2022-11-22T14:51:20.170Z,98936.13
2022-11-22T14:54:00.301Z,98936.63
2022-11-22T14:56:34.442Z,98937.31
2022-11-22T14:59:01.275Z,98955.28
2022-11-22T15:01:48.085Z,98943.34
2022-11-22T15:09:10.684Z,98947.28
2022-11-22T15:09:15.085Z,98937.34
2022-11-22T15:11:21.489Z,98941.13
2022-11-22T15:14:13.546Z,98938.31
2022-11-22T15:57:30.196Z,98962.59
2022-11-22T15:59:57.667Z,98956.69
2022-11-22T16:02:32.524Z,98953.00
2022-11-22T16:06:07.808Z,98972.53
2022-11-22T16:07:56.934Z,98952.50
2022-11-22T16:10:42.527Z,98956.97
2022-11-22T16:13:21.613Z,98958.13
2022-11-22T16:16:11.695Z,98953.22
2022-11-22T16:18:42.888Z,98952.25
2022-11-22T16:21:15.401Z,98967.94
2022-11-22T16:23:46.920Z,98950.81
2022-11-22T16:27:06.087Z,98949.25
2022-11-22T16:29:36.971Z,98948.66
2022-11-22T16:32:15.071Z,98967.84
2022-11-22T16:34:43.447Z,98965.41
2022-11-22T16:37:37.693Z,98956.75
2022-11-22T16:40:06.634Z,98954.84
2022-11-22T16:42:35.455Z,98953.00
2022-11-22T16:45:04.252Z,98951.53
2022-11-22T16:47:31.597Z,98953.56
2022-11-22T16:49:58.547Z,98955.66
2022-11-22T16:52:25.582Z,98958.28
2022-11-22T16:54:52.487Z,98950.22
2022-11-22T16:57:19.398Z,98959.34
2022-11-22T16:59:46.382Z,98959.44
2022-11-22T17:02:15.806Z,98965.97
2022-11-22T17:04:45.832Z,98964.25
2022-11-22T17:07:14.739Z,98959.28
2022-11-22T17:09:42.167Z,98963.44
2022-11-22T17:12:32.191Z,98970.06
2022-11-22T17:15:00.799Z,98966.31
2022-11-22T17:17:27.743Z,98969.53
2022-11-22T17:19:54.689Z,98983.81
2022-11-22T17:22:21.732Z,98978.38
2022-11-22T17:24:48.902Z,98973.97
2022-11-22T17:27:15.922Z,98976.88
2022-11-22T17:29:50.421Z,98976.09
2022-11-22T17:32:18.265Z,98986.94
2022-11-22T17:34:45.290Z,98972.66
2022-11-22T17:37:13.058Z,98981.88
2022-11-22T17:39:42.804Z,98981.41
2022-11-22T17:42:09.751Z,98973.50
2022-11-22T17:44:36.760Z,98978.38
2022-11-22T17:47:04.038Z,98984.22
2022-11-22T17:49:31.374Z,98973.00
2022-11-22T17:51:58.465Z,98986.00
2022-11-22T17:54:25.376Z,98987.34
2022-11-22T17:56:52.350Z,98986.25
2022-11-22T17:59:19.315Z,98978.72
2022-11-22T18:01:46.299Z,98975.19
2022-11-22T18:04:14.707Z,98988.25
2022-11-22T18:06:41.676Z,98982.56
2022-11-22T18:09:08.833Z,98993.97
2022-11-22T18:11:35.765Z,98991.28
2022-11-22T18:14:02.654Z,98987.84
2022-11-22T18:16:30.121Z,98984.38
2022-11-22T18:18:58.541Z,98998.44
2022-11-22T18:21:29.047Z,98988.47
2022-11-22T18:23:58.349Z,98991.63
2022-11-22T18:26:41.620Z,98994.09
2022-11-22T18:31:57.348Z,99002.97
2022-11-22T18:34:25.065Z,99005.25
2022-11-22T18:36:55.686Z,99005.63
2022-11-22T18:39:23.319Z,98996.63
2022-11-22T18:41:50.316Z,98999.28
2022-11-22T18:44:17.342Z,99006.41
2022-11-22T18:46:44.362Z,99011.75
2022-11-22T18:49:11.509Z,99012.72
2022-11-22T18:51:38.587Z,99018.47
2022-11-22T18:54:05.748Z,99025.66
2022-11-22T18:56:37.802Z,99027.09
2022-11-22T18:59:06.324Z,99033.94
2022-11-22T19:01:37.290Z,99042.25
2022-11-22T19:04:04.907Z,99048.50
2022-11-22T19:06:32.132Z,99055.97
2022-11-22T19:08:59.287Z,99052.28
2022-11-22T19:11:29.293Z,99046.69
2022-11-22T19:13:57.086Z,99051.47
2022-11-22T19:16:25.828Z,99053.19
2022-11-22T19:18:52.879Z,99059.13
2022-11-22T19:21:22.900Z,99070.34
2022-11-22T19:23:50.484Z,99064.25
2022-11-22T19:26:23.872Z,99078.56
2022-11-22T19:28:55.638Z,99075.81
2022-11-22T19:31:31.450Z,99075.47
2022-11-22T19:33:59.768Z,99071.81
2022-11-22T19:36:33.253Z,99070.00
2022-11-22T19:39:05.680Z,99070.22
2022-11-22T19:41:33.292Z,99078.22
2022-11-22T19:44:00.596Z,99085.75
2022-11-22T19:46:28.193Z,99079.69
2022-11-22T19:48:58.059Z,99080.16
2022-11-22T19:51:27.532Z,99080.78
2022-11-22T19:53:59.753Z,99079.56
2022-11-22T19:56:30.629Z,99090.75
2022-11-22T19:58:59.960Z,99087.63
2022-11-22T20:01:30.469Z,99084.44
2022-11-22T20:04:00.956Z,99101.50
2022-11-22T20:06:29.116Z,99100.84
2022-11-22T20:09:10.388Z,99103.00
2022-11-22T20:11:39.714Z,99108.66
2022-11-22T20:14:07.618Z,99108.56
2022-11-22T20:16:41.717Z,99107.66
2022-11-22T20:19:10.629Z,99111.06
2022-11-22T20:21:39.099Z,99120.16
2022-11-22T20:24:07.044Z,99126.81
2022-11-22T20:26:34.801Z,99127.03
2022-11-22T20:29:07.607Z,99141.19
2022-11-22T20:31:37.892Z,99140.06
2022-11-22T20:34:05.567Z,99146.47
2022-11-22T20:36:34.743Z,99149.13
2022-11-22T20:39:05.522Z,99154.00
2022-11-22T20:41:36.446Z,99160.22
2022-11-22T20:44:03.792Z,99167.88
2022-11-22T20:46:30.772Z,99163.50
2022-11-22T20:48:58.254Z,99169.59
2022-11-22T20:51:28.705Z,99169.69
2022-11-22T20:53:57.086Z,99178.31
2022-11-22T20:56:24.866Z,99171.88
2022-11-22T20:58:52.506Z,99176.63
2022-11-22T21:01:26.189Z,99181.28
2022-11-22T21:03:54.469Z,99180.97
2022-11-22T21:06:24.266Z,99183.63
2022-11-22T21:08:51.697Z,99182.81
2022-11-22T21:11:22.712Z,99182.69
2022-11-22T21:13:51.242Z,99189.84
2022-11-22T21:16:28.105Z,99196.03
2022-11-22T21:18:58.576Z,99207.75
2022-11-22T21:21:26.403Z,99221.25
2022-11-22T21:23:56.285Z,99221.78
2022-11-22T21:26:24.346Z,99221.91
2022-11-22T21:28:52.665Z,99220.41
2022-11-22T21:31:21.051Z,99223.59
2022-11-22T21:33:48.832Z,99228.28
2022-11-22T21:36:16.100Z,99243.28
2022-11-22T21:38:43.172Z,99241.66
2022-11-22T21:44:05.637Z,99257.78
2022-11-22T21:46:32.562Z,99263.03
2022-11-22T21:48:59.595Z,99256.50
2022-11-22T21:51:26.773Z,99262.66
2022-11-22T21:54:01.741Z,99255.94
2022-11-22T21:56:29.252Z,99241.31
2022-11-22T21:58:56.432Z,99272.16
2022-11-22T22:01:23.980Z,99268.47
2022-11-22T22:03:51.183Z,99269.44
2022-11-22T22:06:18.668Z,99279.78
2022-11-22T22:08:45.572Z,99275.97
2022-11-22T22:11:12.820Z,99270.09
2022-11-22T22:13:39.803Z,99269.97
2022-11-22T22:16:07.331Z,99278.28
2022-11-22T22:18:37.501Z,99277.69
2022-11-22T22:21:10.351Z,99279.75
2022-11-22T22:23:39.342Z,99289.00
2022-11-22T22:26:15.819Z,99290.16
2022-11-22T22:28:45.096Z,99297.25
2022-11-22T22:31:22.311Z,99298.22
2022-11-22T22:33:56.577Z,99303.69
2022-11-22T22:36:25.940Z,99298.06
2022-11-22T22:38:53.934Z,99302.75
2022-11-22T22:41:20.885Z,99308.41
2022-11-22T22:43:49.187Z,99309.13
2022-11-22T22:46:22.743Z,99308.00
2022-11-22T22:48:50.819Z,99303.56
2022-11-22T22:51:21.078Z,99306.13
2022-11-22T22:53:48.880Z,99316.91
2022-11-22T22:56:18.987Z,99320.47
2022-11-22T22:58:46.307Z,99324.63
2022-11-22T23:01:19.918Z,99326.09
2022-11-22T23:03:57.334Z,99334.34
2022-11-22T23:06:30.032Z,99331.59
2022-11-22T23:08:57.922Z,99342.09
2022-11-22T23:11:48.996Z,99328.09
2022-11-22T23:14:23.539Z,99344.00
2022-11-22T23:16:55.989Z,99344.69
2022-11-22T23:19:24.710Z,99351.63
2022-11-22T23:21:51.804Z,99351.19
2022-11-22T23:24:18.906Z,99342.84
2022-11-22T23:26:45.933Z,99336.75
2022-11-22T23:29:13.109Z,99359.72
2022-11-22T23:31:40.116Z,99362.56
2022-11-22T23:34:07.139Z,99353.63
2022-11-22T23:36:40.226Z,99354.97
2022-11-22T23:39:07.960Z,99361.31
2022-11-22T23:41:35.028Z,99357.22
2022-11-22T23:44:02.029Z,99356.56
2022-11-22T23:46:29.091Z,99359.94
2022-11-22T23:48:59.604Z,99358.78
2022-11-22T23:51:28.904Z,99365.69
2022-11-22T23:54:02.096Z,99358.00
2022-11-22T23:56:31.017Z,99358.22
2022-11-22T23:59:01.867Z,99354.34
